Time;durP1;ratioP1;P1;durP2;ratioP2;P2;SDS_P1;SDS_P2;PMS_P1;PMS_P2;Temp;Humidity;BMP_temperature;BMP_pressure;BME280_temperature;BME280_humidity;BME280_pressure;Samples;Min_cycle;Max_cycle;Signal;HPM_P1;HPM_P2
2021/12/16 00:09:19;;;;;;;0.50;0.47;;;8.40;99.90;;;;;;4977705;28;20384;-80
2021/12/16 00:29:03;;;;;;;1.08;0.85;;;8.40;99.90;;;;;;4977757;28;20054;-82
2021/12/16 00:33:38;;;;;;;0.98;0.68;;;8.40;99.90;;;;;;4995262;28;20049;-81
2021/12/16 00:36:07;;;;;;;1.13;0.88;;;8.40;99.90;;;;;;4995172;28;20051;-84
2021/12/16 00:38:35;;;;;;;1.95;1.70;;;8.40;99.90;;;;;;4994838;28;20403;-84
2021/12/16 00:41:02;;;;;;;2.65;1.90;;;8.40;99.90;;;;;;4977550;28;20057;-80
2021/12/16 00:43:37;;;;;;;2.38;1.50;;;8.40;99.90;;;;;;4994987;28;20042;-82
2021/12/16 00:49:21;;;;;;;3.50;1.90;;;8.40;99.90;;;;;;4934156;29;20062;-85
2021/12/16 00:54:31;;;;;;;4.78;1.30;;;8.40;99.90;;;;;;4918192;29;20394;-82
2021/12/16 00:57:07;;;;;;;2.53;1.60;;;8.40;99.90;;;;;;4918300;29;20119;-83
2021/12/16 00:59:37;;;;;;;2.90;2.13;;;8.30;99.90;;;;;;4918550;29;20358;-82
2021/12/16 01:02:26;;;;;;;4.22;1.58;;;8.30;99.90;;;;;;4918531;29;20055;-81
2021/12/16 01:07:49;;;;;;;2.10;1.58;;;8.30;99.90;;;;;;4918499;29;20052;-79
2021/12/16 01:35:51;;;;;;;0.93;0.93;;;8.00;99.90;;;;;;4933601;29;20563;-81
2021/12/16 01:51:56;;;;;;;2.17;1.95;;;7.90;99.90;;;;;;4952388;29;20091;-80
2021/12/16 01:57:14;;;;;;;4.68;2.80;;;7.90;99.90;;;;;;4952370;29;20058;-84
2021/12/16 01:59:43;;;;;;;3.13;1.25;;;7.90;99.90;;;;;;4938422;28;20504;-84
2021/12/16 02:02:24;;;;;;;1.75;1.13;;;7.90;99.90;;;;;;4995756;28;20092;-84
2021/12/16 02:10:11;;;;;;;2.38;1.48;;;8.00;99.90;;;;;;5012938;28;20141;-84
2021/12/16 02:32:06;;;;;;;1.83;1.55;;;8.00;99.90;;;;;;4932948;29;20584;-81
2021/12/16 02:34:55;;;;;;;3.03;1.40;;;8.10;99.90;;;;;;4917033;29;20059;-84
2021/12/16 02:37:20;;;;;;;2.47;2.00;;;8.10;99.90;;;;;;4932635;29;20051;-83
2021/12/16 02:39:46;;;;;;;1.25;1.15;;;8.00;99.90;;;;;;4932685;29;20114;-82
2021/12/16 02:42:19;;;;;;;1.33;1.23;;;8.00;99.90;;;;;;4948907;29;20102;-80
2021/12/16 02:50:18;;;;;;;1.58;1.45;;;8.10;99.90;;;;;;4932346;29;20067;-82
2021/12/16 02:52:44;;;;;;;2.53;2.38;;;8.10;99.90;;;;;;4932284;29;20511;-80
2021/12/16 02:55:12;;;;;;;3.97;3.72;;;8.10;99.90;;;;;;4932286;29;20095;-83
2021/12/16 02:57:59;;;;;;;3.53;2.10;;;8.10;99.90;;;;;;4916769;29;20570;-80
2021/12/16 03:00:26;;;;;;;1.95;1.80;;;8.10;99.90;;;;;;4932540;29;20056;-83
2021/12/16 03:02:52;;;;;;;1.10;1.10;;;8.00;99.90;;;;;;4932680;29;20047;-79
2021/12/16 03:05:20;;;;;;;2.33;2.03;;;8.00;99.90;;;;;;4971418;28;20050;-83
2021/12/16 03:07:47;;;;;;;3.45;2.05;;;8.00;99.90;;;;;;5012556;28;20533;-86
2021/12/16 03:13:10;;;;;;;3.63;2.35;;;8.00;99.90;;;;;;5034527;28;20049;-85
2021/12/16 03:18:27;;;;;;;2.17;2.08;;;8.00;99.90;;;;;;5028025;28;20050;-84
2021/12/16 03:21:01;;;;;;;;;;;8.00;99.90;;;;;;5028018;28;20462;-79
2021/12/16 03:34:07;;;;;;;;;;;8.10;99.90;;;;;;5027798;28;20576;-84
2021/12/16 03:36:50;;;;;;;10.15;2.13;;;8.10;99.90;;;;;;5012368;28;19929;-84
2021/12/16 03:39:17;;;;;;;2.92;1.45;;;8.00;99.90;;;;;;5027628;28;20437;-83
2021/12/16 03:41:43;;;;;;;7.43;1.95;;;8.10;99.90;;;;;;5011102;28;20050;-81
2021/12/16 03:44:18;;;;;;;3.55;1.92;;;8.10;99.90;;;;;;5012629;28;20037;-83
2021/12/16 03:46:51;;;;;;;2.25;2.08;;;8.10;99.90;;;;;;4998061;28;20072;-84
2021/12/16 03:49:21;;;;;;;3.22;1.33;;;8.10;99.90;;;;;;4997836;28;20088;-83
2021/12/16 03:51:55;;;;;;;1.17;1.08;;;8.10;99.90;;;;;;5015771;28;20048;-83
2021/12/16 03:54:28;;;;;;;1.17;1.08;;;8.00;99.90;;;;;;5014708;28;20045;-83
2021/12/16 03:56:55;;;;;;;0.95;0.73;;;8.10;99.90;;;;;;5015664;28;20089;-82
2021/12/16 03:59:25;;;;;;;4.38;3.00;;;8.10;99.90;;;;;;5014695;28;20042;-82
2021/12/16 04:01:53;;;;;;;1.52;1.42;;;8.10;99.90;;;;;;5015705;28;20066;-85
2021/12/16 04:04:19;;;;;;;9.25;2.15;;;8.10;99.90;;;;;;5015422;28;20137;-81
2021/12/16 04:06:45;;;;;;;1.13;1.13;;;8.00;99.90;;;;;;5015564;28;20125;-82
2021/12/16 04:09:12;;;;;;;6.75;3.67;;;8.00;99.90;;;;;;5015189;28;20042;-82
2021/12/16 04:11:44;;;;;;;2.17;1.50;;;8.00;99.90;;;;;;5015454;28;20077;-82
2021/12/16 04:14:12;;;;;;;2.03;1.85;;;8.00;99.90;;;;;;5030366;28;20046;-78
2021/12/16 04:16:40;;;;;;;1.73;1.58;;;8.00;99.90;;;;;;5030245;28;20046;-85
2021/12/16 04:19:09;;;;;;;2.30;2.10;;;8.00;99.90;;;;;;5015304;28;20054;-85
2021/12/16 04:21:41;;;;;;;1.67;1.58;;;8.00;99.90;;;;;;5030164;28;20483;-81
2021/12/16 04:24:09;;;;;;;3.33;3.13;;;7.90;99.90;;;;;;5015185;28;20050;-83
2021/12/16 04:26:36;;;;;;;1.90;1.80;;;7.90;99.90;;;;;;5013993;28;20372;-82
2021/12/16 04:29:04;;;;;;;3.60;2.78;;;7.90;99.90;;;;;;5014658;28;20046;-84
2021/12/16 04:31:31;;;;;;;1.90;1.80;;;7.80;99.90;;;;;;5014668;28;20104;-84
2021/12/16 04:33:57;;;;;;;5.47;2.92;;;7.80;99.90;;;;;;5014927;28;20054;-81
2021/12/16 04:36:22;;;;;;;2.25;1.83;;;7.80;99.90;;;;;;5014979;28;20069;-83
2021/12/16 04:38:48;;;;;;;3.67;1.90;;;7.70;99.90;;;;;;5013502;28;20038;-83
2021/12/16 04:41:16;;;;;;;6.60;1.75;;;7.60;99.90;;;;;;5013734;28;20057;-81
2021/12/16 04:43:52;;;;;;;3.55;3.28;;;7.60;99.90;;;;;;5014775;28;20048;-78
2021/12/16 04:46:22;;;;;;;4.65;1.45;;;7.60;99.90;;;;;;5014691;28;20468;-82
2021/12/16 04:48:52;;;;;;;5.35;3.40;;;7.50;99.90;;;;;;5014493;28;20080;-83
2021/12/16 04:51:20;;;;;;;2.03;1.83;;;7.50;99.90;;;;;;5014843;28;20092;-80
2021/12/16 04:53:46;;;;;;;4.18;1.85;;;7.40;99.90;;;;;;5029599;28;20053;-79
2021/12/16 04:56:13;;;;;;;1.63;1.60;;;7.40;99.90;;;;;;4995697;28;20053;-81
2021/12/16 04:58:42;;;;;;;3.50;2.63;;;7.40;99.90;;;;;;5014203;28;20090;-81
2021/12/16 05:01:08;;;;;;;5.15;1.50;;;7.40;99.90;;;;;;4996536;28;20129;-81
2021/12/16 05:03:35;;;;;;;2.55;2.45;;;7.40;99.90;;;;;;5016112;28;20085;-82
2021/12/16 05:06:01;;;;;;;3.50;2.63;;;7.30;99.90;;;;;;5034967;28;20102;-80
2021/12/16 05:08:27;;;;;;;4.05;1.42;;;7.30;99.90;;;;;;5031874;28;20485;-81
2021/12/16 05:10:56;;;;;;;3.00;1.40;;;7.30;99.90;;;;;;5013091;28;20133;-82
2021/12/16 05:13:25;;;;;;;3.63;2.35;;;7.30;99.90;;;;;;5029562;28;20502;-78
2021/12/16 05:15:52;;;;;;;2.25;1.63;;;7.30;99.90;;;;;;5013047;28;20501;-81
2021/12/16 05:18:22;;;;;;;3.15;2.10;;;7.30;99.90;;;;;;5012593;28;20081;-82
2021/12/16 05:20:49;;;;;;;4.70;1.60;;;7.40;99.90;;;;;;5029164;28;20042;-80
2021/12/16 05:28:27;;;;;;;1.48;1.45;;;7.40;99.90;;;;;;5013580;28;20552;-81
2021/12/16 05:30:54;;;;;;;1.83;0.95;;;7.40;99.90;;;;;;5013891;28;20128;-82
2021/12/16 05:33:22;;;;;;;2.05;1.95;;;7.40;99.90;;;;;;5013941;28;20045;-79
2021/12/16 05:35:48;;;;;;;2.38;2.05;;;7.40;99.90;;;;;;5013812;28;20109;-80
2021/12/16 05:38:14;;;;;;;4.40;2.00;;;7.40;99.90;;;;;;5012313;28;20398;-78
2021/12/16 05:40:41;;;;;;;1.48;1.38;;;7.40;99.90;;;;;;4995918;28;20060;-82
2021/12/16 05:43:09;;;;;;;3.50;3.15;;;7.40;99.90;;;;;;5013528;28;20057;-82
2021/12/16 05:45:36;;;;;;;3.15;1.40;;;7.40;99.90;;;;;;5013394;28;20506;-83
2021/12/16 05:48:05;;;;;;;3.95;2.40;;;7.40;99.90;;;;;;5013757;28;20053;-83
2021/12/16 05:50:35;;;;;;;2.28;2.17;;;7.40;99.90;;;;;;5012351;28;20042;-82
2021/12/16 05:53:01;;;;;;;9.80;2.25;;;7.40;99.90;;;;;;5013427;28;20037;-80
2021/12/16 05:55:27;;;;;;;5.47;2.25;;;7.40;99.90;;;;;;5013022;28;20465;-84
2021/12/16 05:57:53;;;;;;;2.45;2.35;;;7.50;99.90;;;;;;5013100;28;20050;-82
2021/12/16 06:00:29;;;;;;;3.10;1.92;;;7.50;99.90;;;;;;5013925;28;20132;-81
2021/12/16 06:02:55;;;;;;;3.03;2.83;;;7.50;99.90;;;;;;5016002;28;20065;-83
2021/12/16 06:05:21;;;;;;;0.82;0.82;;;7.50;99.90;;;;;;5015784;28;20057;-80
2021/12/16 06:07:47;;;;;;;1.95;1.83;;;7.50;99.90;;;;;;5013328;28;20165;-81
2021/12/16 06:10:58;;;;;;;2.42;2.22;;;7.50;99.90;;;;;;5013059;28;20514;-83
2021/12/16 06:13:01;;;;;;;5.47;2.20;;;7.50;99.90;;;;;;5013944;28;20120;-83
2021/12/16 06:15:45;;;;;;;4.13;2.63;;;7.50;99.90;;;;;;5013133;28;20490;-82
2021/12/16 06:28:54;;;;;;;1.45;1.33;;;7.60;99.90;;;;;;5012559;28;20138;-84
2021/12/16 06:31:21;;;;;;;8.30;1.70;;;7.50;99.90;;;;;;5011322;28;20125;-81
2021/12/16 06:33:47;;;;;;;4.57;3.33;;;7.60;99.90;;;;;;4995289;28;20046;-82
2021/12/16 06:36:13;;;;;;;9.75;3.15;;;7.50;99.90;;;;;;4995109;28;20046;-84
2021/12/16 06:38:39;;;;;;;4.65;1.48;;;7.60;99.90;;;;;;5027658;28;20394;-84
2021/12/16 06:41:05;;;;;;;1.15;1.15;;;7.60;99.90;;;;;;5011803;28;20053;-82
2021/12/16 06:43:32;;;;;;;3.50;2.28;;;7.60;99.90;;;;;;5011417;28;20048;-82
2021/12/16 06:46:00;;;;;;;1.55;1.10;;;7.60;99.90;;;;;;5012730;28;20042;-80
2021/12/16 06:48:30;;;;;;;1.00;1.00;;;7.60;99.90;;;;;;5012573;28;20676;-81
2021/12/16 06:51:01;;;;;;;5.88;1.40;;;7.60;99.90;;;;;;5012703;28;20406;-83
2021/12/16 06:53:33;;;;;;;0.50;0.50;;;7.50;99.90;;;;;;5012842;28;20056;-80
2021/12/16 06:56:10;;;;;;;2.15;1.50;;;7.50;99.90;;;;;;5010396;28;20395;-84
2021/12/16 06:58:46;;;;;;;2.67;1.63;;;7.50;99.90;;;;;;5015830;28;20050;-84
2021/12/16 07:01:26;;;;;;;2.05;1.77;;;7.50;99.90;;;;;;5017465;28;20494;-82
2021/12/16 07:03:52;;;;;;;6.25;1.50;;;7.50;99.90;;;;;;5014120;28;20096;-83
2021/12/16 07:06:26;;;;;;;4.13;3.03;;;7.50;99.90;;;;;;5012176;28;20058;-80
2021/12/16 07:08:56;;;;;;;2.47;1.58;;;7.50;99.90;;;;;;5012608;28;20078;-84
2021/12/16 07:11:22;;;;;;;2.58;2.17;;;7.50;99.90;;;;;;5012019;28;20128;-83
2021/12/16 07:13:57;;;;;;;1.63;1.50;;;7.60;99.90;;;;;;5012468;28;20046;-83
2021/12/16 07:16:25;;;;;;;0.93;0.93;;;7.50;99.90;;;;;;5027392;28;20052;-82
2021/12/16 07:18:51;;;;;;;3.22;1.98;;;7.50;99.90;;;;;;5012245;28;20046;-84
2021/12/16 07:21:17;;;;;;;2.47;1.60;;;7.40;99.90;;;;;;5014721;28;20046;-84
2021/12/16 07:23:43;;;;;;;1.38;1.30;;;7.40;99.90;;;;;;5015104;28;20057;-83
2021/12/16 07:26:09;;;;;;;1.95;1.33;;;7.40;99.90;;;;;;5016054;28;20072;-84
2021/12/16 07:28:34;;;;;;;5.40;3.55;;;7.40;99.90;;;;;;5016026;28;20423;-84
2021/12/16 07:31:00;;;;;;;0.80;0.80;;;7.40;99.90;;;;;;5014447;28;20046;-84
2021/12/16 07:33:26;;;;;;;1.70;1.60;;;7.30;99.90;;;;;;5015678;28;20437;-84
2021/12/16 07:35:53;;;;;;;1.85;1.75;;;7.30;99.90;;;;;;5015647;28;20505;-84
2021/12/16 07:38:22;;;;;;;1.60;1.50;;;7.20;99.90;;;;;;5015915;28;20060;-84
2021/12/16 07:40:51;;;;;;;9.32;3.42;;;7.20;99.90;;;;;;5015934;28;20041;-84
2021/12/16 07:43:27;;;;;;;6.78;4.20;;;7.20;99.90;;;;;;4997791;28;20095;-85
2021/12/16 07:45:55;;;;;;;3.30;2.17;;;7.10;99.90;;;;;;5015881;28;20073;-84
2021/12/16 07:48:23;;;;;;;4.85;3.35;;;7.10;99.90;;;;;;5031103;28;20093;-80
2021/12/16 07:50:55;;;;;;;5.82;4.38;;;7.10;99.90;;;;;;5015689;28;20045;-85
2021/12/16 07:53:21;;;;;;;3.65;3.40;;;7.00;99.90;;;;;;5015635;28;20081;-83
2021/12/16 07:55:47;;;;;;;4.55;2.65;;;7.00;99.90;;;;;;5015175;28;20057;-82
2021/12/16 07:58:13;;;;;;;7.57;2.38;;;7.00;99.90;;;;;;5014083;28;20584;-84
2021/12/16 08:00:40;;;;;;;6.53;3.30;;;6.90;99.90;;;;;;5015121;28;20562;-84
2021/12/16 08:03:10;;;;;;;3.55;2.50;;;6.90;99.90;;;;;;5015396;28;20034;-84
2021/12/16 08:05:40;;;;;;;2.28;2.17;;;6.90;99.90;;;;;;5015089;28;20410;-84
2021/12/16 08:08:07;;;;;;;1.02;1.02;;;6.80;99.90;;;;;;4997481;28;20073;-82
2021/12/16 08:10:34;;;;;;;2.28;2.10;;;6.80;99.90;;;;;;5015159;28;20088;-83
2021/12/16 08:13:00;;;;;;;2.60;2.45;;;6.80;99.90;;;;;;5015246;28;20038;-80
2021/12/16 08:15:26;;;;;;;1.95;1.85;;;6.80;99.90;;;;;;5030230;28;20049;-83
2021/12/16 08:17:54;;;;;;;3.97;2.88;;;6.70;99.90;;;;;;5015335;28;20042;-84
2021/12/16 08:20:21;;;;;;;4.63;2.65;;;6.70;99.90;;;;;;5015223;28;20061;-84
2021/12/16 08:22:50;;;;;;;8.65;3.30;;;6.70;99.90;;;;;;5015109;28;20184;-85
2021/12/16 08:25:18;;;;;;;2.88;2.58;;;6.60;99.90;;;;;;5030425;28;20054;-85
2021/12/16 08:27:44;;;;;;;5.75;1.48;;;6.60;99.90;;;;;;5030091;28;20042;-85
2021/12/16 08:30:12;;;;;;;2.05;1.85;;;6.60;99.90;;;;;;5029649;28;20052;-85
2021/12/16 08:32:38;;;;;;;2.00;1.90;;;6.50;99.90;;;;;;5030072;28;20050;-83
2021/12/16 08:35:06;;;;;;;20.65;4.15;;;6.60;99.90;;;;;;4996981;28;20045;-84
2021/12/16 08:37:32;;;;;;;0.80;0.80;;;6.60;99.90;;;;;;5014830;28;20048;-84
2021/12/16 08:39:58;;;;;;;2.03;1.67;;;6.60;99.90;;;;;;4996982;28;20132;-84
2021/12/16 08:42:23;;;;;;;9.82;5.38;;;6.60;99.90;;;;;;4996935;28;20085;-83
2021/12/16 08:44:49;;;;;;;4.43;4.07;;;6.70;99.90;;;;;;5013314;28;20095;-84
2021/12/16 08:47:19;;;;;;;1.33;1.33;;;6.80;99.90;;;;;;5014570;28;20044;-84
2021/12/16 08:49:49;;;;;;;1.27;1.27;;;6.80;99.90;;;;;;5013382;28;20513;-82
2021/12/16 08:52:18;;;;;;;6.07;1.50;;;6.90;99.90;;;;;;5015390;28;20128;-84
2021/12/16 08:54:45;;;;;;;3.47;2.53;;;6.90;99.90;;;;;;5012762;28;20046;-84
2021/12/16 08:57:12;;;;;;;3.53;3.20;;;7.00;99.90;;;;;;5014116;28;20057;-85
2021/12/16 08:59:38;;;;;;;5.28;1.85;;;7.00;99.90;;;;;;5014316;28;20125;-83
2021/12/16 09:02:07;;;;;;;1.33;1.33;;;7.20;99.90;;;;;;5014342;28;20069;-85
2021/12/16 09:04:34;;;;;;;1.50;1.27;;;7.30;99.90;;;;;;5013997;28;20050;-84
2021/12/16 09:07:02;;;;;;;6.90;2.47;;;7.40;99.90;;;;;;5013975;28;20073;-84
2021/12/16 09:09:33;;;;;;;2.65;2.17;;;7.50;99.90;;;;;;5014481;28;20038;-84
2021/12/16 09:12:12;;;;;;;2.95;2.75;;;7.60;99.90;;;;;;5012647;28;20384;-84
2021/12/16 09:14:40;;;;;;;2.10;1.98;;;7.60;99.90;;;;;;5013120;28;20121;-85
2021/12/16 09:17:11;;;;;;;1.58;1.58;;;7.70;99.90;;;;;;5014633;28;20096;-84
2021/12/16 09:19:39;;;;;;;2.08;1.67;;;7.70;99.90;;;;;;4998317;28;20045;-84
2021/12/16 09:22:05;;;;;;;3.38;2.70;;;7.70;99.90;;;;;;4996840;28;20053;-84
2021/12/16 09:24:31;;;;;;;18.33;5.82;;;7.70;99.90;;;;;;4996333;28;20034;-84
2021/12/16 09:26:57;;;;;;;2.30;2.08;;;7.70;99.90;;;;;;5013835;28;20054;-84
2021/12/16 09:29:22;;;;;;;3.58;3.28;;;7.70;99.90;;;;;;5013981;28;20099;-83
2021/12/16 09:31:48;;;;;;;2.88;2.67;;;7.60;99.90;;;;;;5014313;28;20046;-84
2021/12/16 09:34:14;;;;;;;4.53;2.45;;;7.60;99.90;;;;;;5013878;28;20042;-83
2021/12/16 09:36:42;;;;;;;3.72;2.65;;;7.60;99.90;;;;;;5013750;28;20573;-85
2021/12/16 09:39:14;;;;;;;1.98;1.52;;;7.60;99.90;;;;;;5014034;28;20078;-84
2021/12/16 09:41:46;;;;;;;4.45;4.05;;;7.70;99.90;;;;;;5017833;28;20052;-84
2021/12/16 09:48:35;;;;;;;7.50;2.30;;;7.60;99.90;;;;;;5013430;28;20056;-83
2021/12/16 09:51:01;;;;;;;5.15;2.63;;;7.60;99.90;;;;;;4995635;28;20049;-84
2021/12/16 09:53:27;;;;;;;5.30;4.18;;;7.70;99.90;;;;;;5013686;28;20053;-84
2021/12/16 09:55:59;;;;;;;11.15;3.85;;;7.70;99.90;;;;;;5010039;28;20061;-84
2021/12/16 09:58:27;;;;;;;7.75;2.97;;;7.70;99.90;;;;;;4995798;28;20054;-84
2021/12/16 10:00:54;;;;;;;7.10;3.17;;;7.80;99.90;;;;;;5013637;28;20103;-84
2021/12/16 10:03:20;;;;;;;4.15;3.03;;;7.80;99.90;;;;;;5013587;28;20044;-84
2021/12/16 10:05:45;;;;;;;5.32;3.75;;;7.80;99.90;;;;;;5012171;28;20045;-84
2021/12/16 10:08:11;;;;;;;2.30;2.10;;;7.90;99.90;;;;;;4995560;28;20410;-86
2021/12/16 10:10:37;;;;;;;3.70;2.05;;;7.90;99.90;;;;;;4995409;28;20121;-84
2021/12/16 10:13:05;;;;;;;5.03;1.58;;;7.90;99.90;;;;;;5012334;28;20108;-83
2021/12/16 10:18:14;;;;;;;6.10;3.35;;;8.00;99.90;;;;;;4996115;28;20119;-90
2021/12/16 10:20:53;;;;;;;12.25;4.00;;;8.00;99.90;;;;;;5013131;28;20048;-82
2021/12/16 10:23:26;;;;;;;2.22;0.90;;;8.00;99.90;;;;;;5012360;28;20045;-88
2021/12/16 10:25:59;;;;;;;7.20;2.80;;;8.20;99.90;;;;;;4996151;28;20054;-84
2021/12/16 10:28:29;;;;;;;3.10;2.90;;;8.10;99.90;;;;;;5011752;28;20065;-84
2021/12/16 10:31:16;;;;;;;2.92;1.35;;;8.10;99.90;;;;;;4994827;28;20406;-83
2021/12/16 10:34:03;;;;;;;6.65;4.75;;;8.10;99.90;;;;;;5012516;28;20048;-84
2021/12/16 10:36:32;;;;;;;2.40;2.20;;;8.10;99.90;;;;;;5019775;28;20069;-81
2021/12/16 10:39:23;;;;;;;6.00;2.53;;;8.10;99.90;;;;;;5015465;28;20080;-81
2021/12/16 10:41:51;;;;;;;1.90;1.80;;;8.20;99.90;;;;;;4995171;28;20038;-79
2021/12/16 10:44:28;;;;;;;2.28;1.55;;;8.20;99.90;;;;;;5011363;28;20600;-85
2021/12/16 10:47:00;;;;;;;1.30;1.20;;;8.20;99.90;;;;;;4995135;28;20041;-84
2021/12/16 10:49:34;;;;;;;1.85;1.27;;;8.10;99.90;;;;;;5011210;28;20132;-83
2021/12/16 10:52:03;;;;;;;2.60;2.40;;;8.20;99.90;;;;;;5012883;28;20176;-86
2021/12/16 10:54:41;;;;;;;8.38;2.50;;;8.20;99.90;;;;;;5014011;28;20394;-85
2021/12/16 10:57:18;;;;;;;1.95;1.73;;;8.10;99.90;;;;;;5014270;28;20513;-83
2021/12/16 10:59:50;;;;;;;4.13;2.63;;;8.20;99.90;;;;;;5032393;28;20136;-82
2021/12/16 11:02:25;;;;;;;2.17;2.03;;;8.20;99.90;;;;;;4999385;28;20084;-87
2021/12/16 11:04:53;;;;;;;1.65;1.55;;;8.20;99.90;;;;;;5015617;28;20046;-86
2021/12/16 11:07:34;;;;;;;3.67;2.05;;;8.20;99.90;;;;;;5017218;28;20100;-84
2021/12/16 11:10:21;;;;;;;1.63;1.40;;;8.20;99.90;;;;;;5031773;28;20037;-82
2021/12/16 11:12:56;;;;;;;1.92;1.50;;;8.20;99.90;;;;;;5015790;28;20041;-83
2021/12/16 11:15:28;;;;;;;1.13;1.02;;;8.20;99.90;;;;;;4999345;28;20050;-87
2021/12/16 11:18:06;;;;;;;9.10;2.80;;;8.20;99.90;;;;;;5032111;28;20129;-85
2021/12/16 11:20:49;;;;;;;0.40;0.40;;;8.20;99.90;;;;;;5015309;28;20046;-80
2021/12/16 11:23:17;;;;;;;2.92;1.92;;;8.20;99.90;;;;;;5032017;28;20084;-83
2021/12/16 11:25:51;;;;;;;3.20;1.50;;;8.20;99.90;;;;;;5031992;28;20048;-86
2021/12/16 11:28:31;;;;;;;3.95;2.13;;;8.20;99.90;;;;;;5015420;28;20054;-83
2021/12/16 11:31:05;;;;;;;1.85;1.73;;;8.20;99.90;;;;;;5016493;28;20198;-87
2021/12/16 11:33:42;;;;;;;2.47;1.45;;;8.30;99.90;;;;;;5016577;28;20529;-88
2021/12/16 11:36:21;;;;;;;0.50;0.50;;;8.30;99.90;;;;;;5016826;28;20101;-84
2021/12/16 11:38:54;;;;;;;2.90;2.42;;;8.40;99.90;;;;;;4998635;28;20482;-86
2021/12/16 11:41:45;;;;;;;3.85;2.50;;;8.40;99.90;;;;;;5014877;28;20505;-87
2021/12/16 11:44:18;;;;;;;1.33;1.13;;;8.40;99.90;;;;;;5015346;28;20046;-87
2021/12/16 11:46:55;;;;;;;17.27;2.30;;;8.40;99.90;;;;;;5016258;28;20116;-81
2021/12/16 11:49:42;;;;;;;3.92;3.50;;;8.40;99.90;;;;;;5031512;28;20045;-85
2021/12/16 11:52:27;;;;;;;4.45;4.03;;;8.40;99.90;;;;;;5032142;28;20085;-89
2021/12/16 11:55:03;;;;;;;3.70;3.47;;;8.40;99.90;;;;;;4999019;28;20049;-87
2021/12/16 11:57:41;;;;;;;3.17;2.90;;;8.40;99.90;;;;;;5016287;28;20180;-85
2021/12/16 12:00:17;;;;;;;3.72;3.38;;;8.50;99.90;;;;;;5015663;28;20442;-85
2021/12/16 12:02:47;;;;;;;4.47;3.63;;;8.50;99.90;;;;;;5016289;28;20153;-88
2021/12/16 12:05:53;;;;;;;2.67;2.28;;;8.50;99.90;;;;;;5031226;28;20049;-85
2021/12/16 12:08:23;;;;;;;3.85;3.05;;;8.50;99.90;;;;;;4939767;29;20063;-86
2021/12/16 12:11:03;;;;;;;6.95;3.33;;;8.50;99.90;;;;;;4955708;29;20066;-85
2021/12/16 12:13:40;;;;;;;2.85;2.58;;;8.50;99.90;;;;;;4940504;29;20079;-88
2021/12/16 12:16:08;;;;;;;2.40;2.22;;;8.50;99.90;;;;;;4956439;28;20097;-88
2021/12/16 12:18:52;;;;;;;3.92;3.30;;;8.70;99.90;;;;;;4955710;29;20080;-86
2021/12/16 12:21:32;;;;;;;3.55;2.83;;;8.50;99.90;;;;;;4956006;29;20047;-88
2021/12/16 12:24:01;;;;;;;3.60;2.47;;;8.60;99.90;;;;;;4955542;29;20094;-82
2021/12/16 12:26:28;;;;;;;2.08;2.00;;;8.50;99.90;;;;;;4941399;29;20274;-82
2021/12/16 12:28:58;;;;;;;4.45;4.03;;;8.60;99.90;;;;;;4944425;29;20097;-79
2021/12/16 12:31:27;;;;;;;5.68;2.58;;;8.60;99.90;;;;;;4940886;29;20091;-83
2021/12/16 12:33:53;;;;;;;3.67;3.47;;;8.50;99.90;;;;;;4954506;29;20428;-83
2021/12/16 12:36:21;;;;;;;7.32;2.80;;;8.60;99.90;;;;;;4955601;29;20083;-80
2021/12/16 12:38:47;;;;;;;2.38;2.13;;;8.60;99.90;;;;;;4955112;29;20351;-87
2021/12/16 12:41:13;;;;;;;4.18;2.75;;;8.60;99.90;;;;;;4955394;29;20047;-88
2021/12/16 12:43:39;;;;;;;11.25;4.82;;;8.60;99.90;;;;;;4943760;28;20058;-85
2021/12/16 12:46:07;;;;;;;3.92;2.45;;;8.60;99.90;;;;;;4997586;28;20050;-88
2021/12/16 12:48:35;;;;;;;4.35;3.97;;;8.60;99.90;;;;;;5014007;28;20046;-88
2021/12/16 12:51:04;;;;;;;4.78;4.38;;;8.60;99.90;;;;;;5015106;28;20080;-86
2021/12/16 12:53:38;;;;;;;4.50;3.63;;;8.60;99.90;;;;;;4997808;28;20108;-85
2021/12/16 12:56:11;;;;;;;6.85;2.25;;;8.60;99.90;;;;;;5015133;28;20144;-87
2021/12/16 12:58:48;;;;;;;3.80;3.55;;;8.70;99.90;;;;;;5015222;28;20417;-86
2021/12/16 13:01:13;;;;;;;3.65;3.33;;;8.60;99.90;;;;;;5030218;28;20046;-84
2021/12/16 13:03:40;;;;;;;2.58;2.38;;;8.60;99.90;;;;;;5015218;28;20371;-88
2021/12/16 13:06:17;;;;;;;1.85;1.75;;;8.70;99.90;;;;;;5015265;28;20124;-85
2021/12/16 13:08:48;;;;;;;9.38;4.68;;;8.70;99.90;;;;;;5015140;28;20380;-86
2021/12/16 13:11:28;;;;;;;1.05;0.85;;;8.70;99.90;;;;;;5014926;28;20498;-87
2021/12/16 13:28:03;;;;;;;6.40;3.47;;;8.80;99.90;;;;;;4997521;28;20058;-80
2021/12/16 13:30:38;;;;;;;4.03;1.23;;;8.70;99.90;;;;;;5028981;28;20446;-84
2021/12/16 13:33:23;;;;;;;2.25;2.05;;;8.70;99.90;;;;;;5029354;28;20045;-86
2021/12/16 13:36:01;;;;;;;7.80;3.65;;;8.70;99.90;;;;;;5013283;28;20129;-86
2021/12/16 13:38:37;;;;;;;8.90;4.75;;;8.70;99.90;;;;;;5013460;28;20081;-87
2021/12/16 13:41:17;;;;;;;2.58;2.38;;;8.70;99.90;;;;;;5029719;28;20034;-85
2021/12/16 13:44:06;;;;;;;4.68;3.10;;;8.70;99.90;;;;;;5029569;28;20045;-85
2021/12/16 13:47:09;;;;;;;7.28;2.85;;;8.70;99.90;;;;;;5012973;28;20088;-85
2021/12/16 14:01:57;;;;;;;8.95;2.90;;;8.70;99.90;;;;;;4973128;28;20460;-89
2021/12/16 14:10:05;;;;;;;2.67;2.58;;;8.70;99.90;;;;;;4972950;28;20050;-82
2021/12/16 14:24:19;;;;;;;2.03;1.90;;;8.70;99.90;;;;;;4976449;28;20046;-82
2021/12/16 14:34:59;;;;;;;2.75;2.60;;;8.70;99.90;;;;;;4896137;29;20047;-84
2021/12/16 14:43:34;;;;;;;4.97;3.22;;;8.70;99.90;;;;;;4821909;29;20219;-91
2021/12/16 14:46:04;;;;;;;2.50;2.40;;;8.70;99.90;;;;;;4822372;29;20057;-90
2021/12/16 14:48:35;;;;;;;1.45;1.05;;;8.70;99.90;;;;;;4822110;29;20157;-87
2021/12/16 14:51:05;;;;;;;1.75;1.65;;;8.70;99.90;;;;;;4806778;29;20066;-85
2021/12/16 14:53:36;;;;;;;0.50;0.50;;;8.70;99.90;;;;;;4822029;29;20059;-87
2021/12/16 14:56:07;;;;;;;5.55;3.25;;;8.70;99.90;;;;;;4822107;29;20058;-88
2021/12/16 14:58:34;;;;;;;2.30;1.73;;;8.70;99.90;;;;;;4809803;29;20070;-88
2021/12/16 15:01:29;;;;;;;1.95;1.55;;;8.60;99.90;;;;;;4822246;29;20062;-87
2021/12/16 15:03:55;;;;;;;5.75;2.45;;;8.60;99.90;;;;;;4806647;29;20472;-80
2021/12/16 15:06:39;;;;;;;3.85;2.25;;;8.60;99.90;;;;;;4821157;29;20066;-86
2021/12/16 15:09:15;;;;;;;2.60;1.45;;;8.60;99.90;;;;;;4840159;29;20050;-88
2021/12/16 15:12:01;;;;;;;1.55;1.40;;;8.60;99.90;;;;;;4825020;29;20052;-90
2021/12/16 15:14:51;;;;;;;1.25;1.15;;;8.60;99.90;;;;;;4827353;29;20052;-77
2021/12/16 15:17:50;;;;;;;4.32;3.92;;;8.60;99.90;;;;;;4866833;29;20068;-85
2021/12/16 15:38:58;;;;;;;2.50;2.35;;;8.50;99.90;;;;;;5012801;28;20053;-89
2021/12/16 15:43:56;;;;;;;8.68;1.48;;;8.40;99.90;;;;;;5017033;28;20042;-82
2021/12/16 15:46:28;;;;;;;1.52;1.08;;;8.40;99.90;;;;;;5016749;28;20050;-86
2021/12/16 15:48:55;;;;;;;14.40;4.90;;;8.40;99.90;;;;;;4999875;28;20042;-85
2021/12/16 15:51:24;;;;;;;4.40;2.65;;;8.40;99.90;;;;;;4998849;28;20045;-90
2021/12/16 15:53:55;;;;;;;3.40;2.15;;;8.50;99.90;;;;;;5016716;28;20048;-80
2021/12/16 15:56:27;;;;;;;4.90;2.15;;;8.40;99.90;;;;;;5015996;28;20104;-86
2021/12/16 15:59:04;;;;;;;4.00;3.60;;;8.40;99.90;;;;;;5016408;28;20057;-81
2021/12/16 16:01:38;;;;;;;2.58;2.33;;;8.40;99.90;;;;;;5016109;28;20046;-88
2021/12/16 16:04:17;;;;;;;2.75;2.65;;;8.30;99.90;;;;;;5016143;28;20431;-84
2021/12/16 16:06:46;;;;;;;2.95;2.75;;;8.40;99.90;;;;;;5016239;28;20102;-86
2021/12/16 16:09:13;;;;;;;5.28;3.40;;;8.40;99.90;;;;;;5014683;28;20050;-85
2021/12/16 16:11:44;;;;;;;2.45;1.45;;;8.40;99.90;;;;;;5015913;28;20042;-88
2021/12/16 16:14:11;;;;;;;9.27;2.85;;;8.30;99.90;;;;;;5015483;28;20137;-84
2021/12/16 16:16:48;;;;;;;1.88;1.45;;;8.30;99.90;;;;;;5016139;28;20042;-81
2021/12/16 16:19:18;;;;;;;12.10;3.85;;;8.30;99.90;;;;;;5031265;28;20038;-81
2021/12/16 16:21:48;;;;;;;3.08;2.47;;;8.30;99.90;;;;;;4998157;28;20057;-87
2021/12/16 16:24:38;;;;;;;2.55;2.30;;;8.30;99.90;;;;;;4997988;28;20053;-87
2021/12/16 16:27:08;;;;;;;2.22;2.10;;;8.30;99.90;;;;;;5015945;28;20113;-85
2021/12/16 16:29:35;;;;;;;2.42;1.95;;;8.30;99.90;;;;;;5015500;28;20045;-80
2021/12/16 16:32:02;;;;;;;1.77;1.73;;;8.30;99.90;;;;;;5015617;28;20132;-88
2021/12/16 16:34:49;;;;;;;2.83;2.58;;;8.30;99.90;;;;;;5014366;28;20506;-83
2021/12/16 16:37:25;;;;;;;7.93;3.47;;;8.30;99.90;;;;;;5015308;28;20093;-84
2021/12/16 16:39:53;;;;;;;1.48;0.70;;;8.30;99.90;;;;;;5019645;28;20482;-84
2021/12/16 16:42:20;;;;;;;2.78;2.50;;;8.30;99.90;;;;;;5018322;28;20042;-82
2021/12/16 16:44:55;;;;;;;3.25;1.38;;;8.20;99.90;;;;;;5019625;28;20390;-86
2021/12/16 16:47:46;;;;;;;3.67;2.17;;;8.20;99.90;;;;;;5014844;28;20041;-84
2021/12/16 16:50:12;;;;;;;4.47;1.85;;;8.20;99.90;;;;;;5014793;28;20050;-83
2021/12/16 16:52:46;;;;;;;3.60;1.77;;;8.20;99.90;;;;;;5014975;28;20081;-84
2021/12/16 16:55:20;;;;;;;2.25;1.60;;;8.20;99.90;;;;;;5014434;28;20501;-82
2021/12/16 16:57:55;;;;;;;5.90;2.22;;;8.10;99.90;;;;;;5013121;28;20058;-84
2021/12/16 17:00:39;;;;;;;7.53;1.58;;;8.10;99.90;;;;;;5015228;28;20045;-87
2021/12/16 17:03:10;;;;;;;1.85;1.73;;;8.10;99.90;;;;;;5015127;28;20046;-86
2021/12/16 17:05:50;;;;;;;9.48;2.45;;;8.10;99.90;;;;;;4997024;28;20049;-85